Datum Uhrzeit Temperatur Luft Windgeschw. Regen Regen (1h) Temp (1h) Luftdruck Windrichtung Taupunkt Sensor
2019-03-25 22:10:00 3.1 79.0 0.0 0.0 0.0 -1.4 0.0 Kombisensor
2019-03-25 22:09:00 3.1 79.0 0.0 0.0 0.0 -1.4 0.0 Kombisensor
2019-03-25 22:06:00 3.3 79.0 0.0 0.0 0.0 -1.0 0.0 Kombisensor
2019-03-25 22:05:00 3.2 79.0 0.0 0.0 0.0 -1.0 0.0 Kombisensor
2019-03-25 22:03:00 3.2 79.0 0.0 0.0 0.0 -1.2 0.0 Kombisensor
2019-03-25 22:00:00 3.2 79.0 0.0 0.0 0.0 -1.3 0.0 Kombisensor
2019-03-25 22:00:00 3.2 79.0 0.0 0.0 0.0 -1.3 0.0 Kombisensor
2019-03-25 21:57:00 3.5 79.0 0.0 0.0 0.0 -1.1 0.0 Kombisensor
2019-03-25 21:55:00 3.6 79.0 0.0 0.0 0.0 -1.0 0.0 Kombisensor
2019-03-25 21:54:00 3.6 79.0 0.0 0.0 0.0 -1.0 0.0 Kombisensor
2019-03-25 21:51:00 3.7 79.0 0.0 0.0 0.0 -0.8 0.0 Kombisensor
2019-03-25 21:50:00 3.9 79.0 0.0 0.0 0.0 -0.6 0.0 Kombisensor
2019-03-25 21:48:00 3.9 79.0 0.0 0.0 0.0 -0.9 0.0 Kombisensor
2019-03-25 21:46:00 3.9 79.0 0.0 0.0 0.0 -0.9 0.0 Kombisensor
2019-03-25 21:45:00 3.9 79.0 0.0 0.0 0.0 -0.9 0.0 Kombisensor
2019-03-25 21:43:00 3.8 79.0 0.0 0.0 0.0 -1.0 0.0 Kombisensor
2019-03-25 21:40:00 3.8 79.0 0.0 0.0 0.0 -1.0 0.0 Kombisensor
2019-03-25 21:40:00 3.8 79.0 0.0 0.0 0.0 -1.0 0.0 Kombisensor
2019-03-25 21:37:00 3.9 79.0 0.0 0.0 0.0 -0.9 0.0 Kombisensor
2019-03-25 21:35:00 3.9 79.0 0.0 0.0 0.0 -0.9 0.0 Kombisensor
2019-03-25 21:34:00 3.9 79.0 0.0 0.0 0.0 -0.9 0.0 Kombisensor
2019-03-25 21:31:00 4.1 79.0 0.0 0.0 0.0 -0.7 0.0 Kombisensor
2019-03-25 21:30:00 4.1 79.0 0.0 0.0 0.0 -0.8 0.0 Kombisensor
2019-03-25 21:28:00 4.3 79.0 0.0 0.0 0.0 -0.6 0.0 Kombisensor
2019-03-25 21:28:00 4.3 79.0 0.0 0.0 0.0 -0.6 0.0 Kombisensor
2019-03-25 21:25:00 4.5 79.0 0.0 0.0 0.0 -0.3 0.0 Kombisensor
2019-03-25 21:25:00 4.5 79.0 0.0 0.0 0.0 -0.3 0.0 Kombisensor
2019-03-25 21:22:00 4.4 79.0 0.0 0.0 0.0 -0.4 0.0 Kombisensor
2019-03-25 21:20:00 4.4 79.0 0.0 0.0 0.0 -0.4 0.0 Kombisensor
2019-03-25 21:19:00 4.4 79.0 0.0 0.0 0.0 -0.4 0.0 Kombisensor
2019-03-25 21:16:00 4.5 79.0 0.0 0.0 0.0 -0.5 0.0 Kombisensor
2019-03-25 21:15:00 4.4 79.0 0.0 0.0 0.0 -0.6 0.0 Kombisensor
2019-03-25 21:13:00 4.4 79.0 0.0 0.0 0.0 -0.6 0.0 Kombisensor
2019-03-25 21:10:00 4.5 79.0 0.0 0.0 0.0 -0.7 0.0 Kombisensor
2019-03-25 21:10:00 4.5 79.0 0.0 0.0 0.0 -0.7 0.0 Kombisensor
2019-03-25 21:07:00 4.3 79.0 0.0 0.0 0.0 -0.7 0.0 Kombisensor
2019-03-25 21:05:00 4.2 79.0 0.0 0.0 0.0 -1.1 0.0 Kombisensor
2019-03-25 21:02:00 4.4 79.0 0.0 0.0 0.0 -0.9 0.0 Kombisensor
2019-03-25 21:00:00 4.5 79.0 0.0 0.0 0.0 -0.8 0.0 Kombisensor
2019-03-25 20:59:00 4.5 79.0 0.0 0.0 0.0 -1.0 0.0 Kombisensor
2019-03-25 20:56:00 4.6 79.0 0.0 0.0 0.0 -1.0 0.0 Kombisensor
2019-03-25 20:55:00 4.6 79.0 0.0 0.0 0.0 -1.0 0.0 Kombisensor
2019-03-25 20:53:00 4.6 79.0 0.0 0.0 0.0 -0.9 0.0 Kombisensor
2019-03-25 20:50:00 4.5 79.0 0.0 0.0 0.0 -1.0 0.0 Kombisensor
2019-03-25 20:50:00 4.5 79.0 0.0 0.0 0.0 -0.4 0.0 Kombisensor
2019-03-25 20:47:00 4.8 79.0 0.0 0.0 0.0 -0.1 0.0 Kombisensor
2019-03-25 20:45:00 4.8 79.0 0.0 0.0 0.0 -0.1 0.0 Kombisensor
2019-03-25 20:44:00 4.8 79.0 0.0 0.0 0.0 -0.1 0.0 Kombisensor
2019-03-25 20:41:00 4.8 79.0 0.0 0.0 0.0 0.0 0.0 Kombisensor
2019-03-25 20:40:00 4.8 79.0 0.0 0.0 0.0 -0.4 0.0 Kombisensor
2019-03-25 20:38:00 4.8 79.0 0.0 0.0 0.0 -0.4 0.0 Kombisensor
2019-03-25 20:35:00 4.8 79.0 0.0 0.0 0.0 -0.2 0.0 Kombisensor
2019-03-25 20:32:00 4.8 79.0 0.0 0.0 0.0 -0.4 0.0 Kombisensor
2019-03-25 20:30:00 4.9 79.0 0.0 0.0 0.0 -0.3 0.0 Kombisensor
2019-03-25 20:29:00 4.9 79.0 0.0 0.0 0.0 -0.3 0.0 Kombisensor
2019-03-25 20:26:00 4.8 79.0 0.0 0.0 0.0 -0.2 0.0 Kombisensor
2019-03-25 20:25:00 4.8 79.0 0.0 0.0 0.0 -0.2 0.0 Kombisensor
2019-03-25 20:23:00 4.8 79.0 0.0 0.0 0.0 -0.2 0.0 Kombisensor
2019-03-25 20:20:00 4.8 79.0 0.0 0.0 0.0 -0.6 0.0 Kombisensor
2019-03-25 20:20:00 4.8 79.0 0.0 0.0 0.0 -0.6 0.0 Kombisensor
2019-03-25 20:18:00 5.0 79.0 0.0 0.0 0.0 -0.2 0.0 Kombisensor
2019-03-25 20:15:00 5.0 79.0 0.0 0.0 0.0 0.0 0.0 Kombisensor
2019-03-25 20:15:00 5.0 79.0 0.0 0.0 0.0 0.0 0.0 Kombisensor
2019-03-25 20:12:00 5.0 79.0 0.0 0.0 0.0 -0.1 0.0 Kombisensor
2019-03-25 20:10:00 5.2 79.0 0.0 0.0 0.0 0.1 0.0 Kombisensor
2019-03-25 20:09:00 5.2 79.0 0.0 0.0 0.0 0.2 0.0 Kombisensor
2019-03-25 20:06:00 5.0 79.0 0.0 0.0 0.0 0.0 0.0 Kombisensor
2019-03-25 20:05:00 5.3 79.0 0.0 0.0 0.0 0.2 0.0 Kombisensor
2019-03-25 20:03:00 5.3 79.0 0.0 0.0 0.0 0.2 0.0 Kombisensor
2019-03-25 20:00:00 5.3 79.0 0.0 0.0 0.0 0.1 0.0 Kombisensor
2019-03-25 20:00:00 5.3 79.0 0.0 0.0 0.0 -0.1 0.0 Kombisensor
2019-03-25 19:57:00 5.5 79.0 0.0 0.0 0.0 0.1 0.0 Kombisensor
2019-03-25 19:55:00 5.6 79.0 0.0 0.0 0.0 0.3 0.0 Kombisensor
2019-03-25 19:54:00 5.6 79.0 0.0 0.0 0.0 0.3 0.0 Kombisensor
2019-03-25 19:51:00 5.5 79.0 0.0 0.0 0.0 0.1 0.0 Kombisensor
2019-03-25 19:50:00 4.9 79.0 0.0 0.0 0.0 -0.5 0.0 Kombisensor
2019-03-25 19:48:00 4.9 79.0 0.0 0.0 0.0 -1.0 0.0 Kombisensor
2019-03-25 19:45:00 4.9 79.0 0.0 0.0 0.0 -1.3 0.0 Kombisensor
2019-03-25 19:45:00 4.9 79.0 0.0 0.0 0.0 -1.3 0.0 Kombisensor
2019-03-25 19:42:00 4.8 79.0 0.0 0.0 0.0 -1.3 0.0 Kombisensor
2019-03-25 19:40:00 5.2 79.0 0.0 0.0 0.0 -0.9 0.0 Kombisensor
2019-03-25 19:39:00 5.2 79.0 0.0 0.0 0.0 -0.9 0.0 Kombisensor
2019-03-25 19:36:00 5.9 79.0 0.0 0.0 0.0 -0.1 0.0 Kombisensor
2019-03-25 19:35:00 5.0 79.0 0.0 0.0 0.0 -1.0 0.0 Kombisensor
2019-03-25 19:34:00 5.0 79.0 0.0 0.0 0.0 -1.0 0.0 Kombisensor
2019-03-25 19:31:00 5.2 79.0 0.0 0.0 0.0 -0.9 0.0 Kombisensor
2019-03-25 19:30:00 5.2 79.0 0.0 0.0 0.0 -0.9 0.0 Kombisensor
2019-03-25 19:28:00 4.7 79.0 0.0 0.0 0.0 -1.6 0.0 Kombisensor
2019-03-25 19:25:00 5.0 79.0 0.0 0.0 0.0 -1.6 0.0 Kombisensor
2019-03-25 19:25:00 5.0 79.0 0.0 0.0 0.0 -1.6 0.0 Kombisensor
2019-03-25 19:22:00 5.0 79.0 0.0 0.0 0.0 -2.0 0.0 Kombisensor
2019-03-25 19:20:00 5.4 79.0 0.0 0.0 0.0 -1.6 0.0 Kombisensor
2019-03-25 19:19:00 5.4 79.0 0.0 0.0 0.0 -1.6 0.0 Kombisensor
2019-03-25 19:16:00 5.2 79.0 0.0 0.0 0.0 -1.8 0.0 Kombisensor
2019-03-25 19:15:00 5.0 79.0 0.0 0.0 0.0 -2.1 0.0 Kombisensor
2019-03-25 19:13:00 5.0 79.0 0.0 0.0 0.0 -2.1 0.0 Kombisensor
2019-03-25 19:10:00 5.1 79.0 0.0 0.0 0.0 -2.4 0.0 Kombisensor
2019-03-25 19:10:00 5.1 79.0 0.0 0.0 0.0 -2.3 0.0 Kombisensor
2019-03-25 19:07:00 5.0 79.0 0.0 0.0 0.0 -2.7 0.0 Kombisensor
2019-03-25 19:05:00 5.1 79.0 0.0 0.0 0.0 -2.9 0.0 Kombisensor
2019-03-25 19:04:00 5.1 79.0 0.0 0.0 0.0 -2.9 0.0 Kombisensor
2019-03-25 19:01:00 5.2 79.0 0.0 0.0 0.0 -3.4 0.0 Kombisensor
2019-03-25 19:00:00 5.4 79.0 0.0 0.0 0.0 -3.2 0.0 Kombisensor
2019-03-25 18:58:00 5.4 79.0 0.0 0.0 0.0 -5.6 0.0 Kombisensor
2019-03-25 18:55:00 5.3 79.0 0.0 0.0 0.0 -5.1 0.0 Kombisensor
2019-03-25 18:55:00 5.3 79.0 0.0 0.0 0.0 -5.1 0.0 Kombisensor
2019-03-25 18:53:00 5.3 79.0 0.0 0.0 0.0 -3.3 0.0 Kombisensor
2019-03-25 18:50:00 5.4 79.0 0.0 0.0 0.0 -5.5 0.0 Kombisensor
2019-03-25 18:50:00 5.4 79.0 0.0 0.0 0.0 -5.5 0.0 Kombisensor
2019-03-25 18:47:00 5.9 79.0 0.0 0.0 0.0 -7.6 0.0 Kombisensor
2019-03-25 18:45:00 6.2 79.0 0.0 0.0 0.0 -7.3 0.0 Kombisensor
2019-03-25 18:44:00 6.2 79.0 0.0 0.0 0.0 -7.6 0.0 Kombisensor
2019-03-25 18:41:00 6.1 79.0 0.0 0.0 0.0 -6.7 0.0 Kombisensor
2019-03-25 18:40:00 6.1 79.0 0.0 0.0 0.0 -6.7 0.0 Kombisensor
2019-03-25 18:38:00 6.1 79.0 0.0 0.0 0.0 -7.4 0.0 Kombisensor
2019-03-25 18:35:00 6.0 79.0 0.0 0.0 0.0 -7.5 0.0 Kombisensor
2019-03-25 18:35:00 6.0 79.0 0.0 0.0 0.0 -7.7 0.0 Kombisensor
2019-03-25 18:32:00 6.0 79.0 0.0 0.0 0.0 -7.7 0.0 Kombisensor
2019-03-25 18:30:00 6.1 79.0 0.0 0.0 0.0 -7.9 0.0 Kombisensor
2019-03-25 18:29:00 6.1 79.0 0.0 0.0 0.0 -7.9 0.0 Kombisensor
2019-03-25 18:26:00 6.3 79.0 0.0 0.0 0.0 -8.4 0.0 Kombisensor
2019-03-25 18:25:00 6.6 79.0 0.0 0.0 0.0 -7.2 0.0 Kombisensor
2019-03-25 18:23:00 6.6 79.0 0.0 0.0 0.0 -6.9 0.0 Kombisensor
2019-03-25 18:20:00 7.0 79.0 0.0 0.0 0.0 -6.9 0.0 Kombisensor
2019-03-25 18:20:00 7.0 79.0 0.0 0.0 0.0 -6.9 0.0 Kombisensor
2019-03-25 18:17:00 7.0 79.0 0.0 0.0 0.0 -6.6 0.0 Kombisensor
2019-03-25 18:15:00 7.1 79.0 0.0 0.0 0.0 -7.0 0.0 Kombisensor
2019-03-25 18:14:00 7.1 79.0 0.0 0.0 0.0 -7.0 0.0 Kombisensor
2019-03-25 18:11:00 7.5 79.0 0.0 0.0 0.0 -6.8 0.0 Kombisensor
2019-03-25 18:10:00 7.4 79.0 0.0 0.0 0.0 -6.9 0.0 Kombisensor
2019-03-25 18:09:00 7.4 79.0 0.0 0.0 0.0 -7.3 0.0 Kombisensor
2019-03-25 18:06:00 7.7 79.0 0.0 0.0 0.0 -6.3 0.0 Kombisensor
2019-03-25 18:05:00 8.0 79.0 0.0 0.0 0.0 -6.0 0.0 Kombisensor
2019-03-25 18:03:00 8.0 79.0 0.0 0.0 0.0 -4.1 0.0 Kombisensor
2019-03-25 18:00:00 8.6 79.0 0.0 0.0 0.0 -5.3 0.0 Kombisensor
2019-03-25 18:00:00 8.6 79.0 0.0 0.0 0.0 -5.3 0.0 Kombisensor
2019-03-25 17:57:00 11.0 79.0 0.0 0.0 0.0 -2.5 0.0 Kombisensor
2019-03-25 17:55:00 10.4 79.0 0.0 0.0 0.0 -3.1 0.0 Kombisensor
2019-03-25 17:54:00 10.4 79.0 0.0 0.0 0.0 -2.4 0.0 Kombisensor
2019-03-25 17:51:00 8.6 79.0 0.0 0.0 0.0 -4.2 0.0 Kombisensor
2019-03-25 17:50:00 10.9 79.0 0.0 0.0 0.0 -1.8 0.0 Kombisensor
2019-03-25 17:48:00 10.9 79.0 0.0 0.0 0.0 -1.8 0.0 Kombisensor
2019-03-25 17:45:00 13.5 79.0 0.0 0.0 0.0 -1.2 0.0 Kombisensor
2019-03-25 17:45:00 13.5 79.0 0.0 0.0 0.0 -0.9 0.0 Kombisensor
2019-03-25 17:42:00 13.8 79.0 0.0 0.0 0.0 -0.6 0.0 Kombisensor
2019-03-25 17:40:00 12.8 79.0 0.0 0.0 0.0 2.5 0.0 Kombisensor
2019-03-25 17:39:00 12.8 79.0 0.0 0.0 0.0 2.5 0.0 Kombisensor
2019-03-25 17:36:00 13.5 79.0 0.0 0.0 0.0 3.7 0.0 Kombisensor
2019-03-25 17:35:00 13.7 79.0 0.0 0.0 0.0 3.9 0.0 Kombisensor
2019-03-25 17:33:00 13.7 79.0 0.0 0.0 0.0 4.0 0.0 Kombisensor
2019-03-25 17:30:00 14.0 79.0 0.0 0.0 0.0 4.3 0.0 Kombisensor
2019-03-25 17:30:00 14.7 79.0 0.0 0.0 0.0 5.0 0.0 Kombisensor
2019-03-25 17:27:00 14.7 79.0 0.0 0.0 0.0 5.1 0.0 Kombisensor
2019-03-25 17:25:00 13.8 79.0 0.0 0.0 0.0 5.0 0.0 Kombisensor
2019-03-25 17:22:00 13.5 79.0 0.0 0.0 0.0 4.7 0.0 Kombisensor
2019-03-25 17:20:00 13.9 79.0 0.0 0.0 0.0 5.1 0.0 Kombisensor
2019-03-25 17:19:00 13.9 79.0 0.0 0.0 0.0 4.5 0.0 Kombisensor
2019-03-25 17:16:00 13.6 79.0 0.0 0.0 0.0 3.6 0.0 Kombisensor
2019-03-25 17:15:00 14.1 79.0 0.0 0.0 0.0 4.1 0.0 Kombisensor
2019-03-25 17:13:00 14.1 79.0 0.0 0.0 0.0 4.9 0.0 Kombisensor
2019-03-25 17:10:00 14.3 79.0 0.0 0.0 0.0 5.3 0.0 Kombisensor
2019-03-25 17:10:00 14.3 79.0 0.0 0.0 0.0 5.3 0.0 Kombisensor
2019-03-25 17:07:00 14.7 79.0 0.0 0.0 0.0 5.7 0.0 Kombisensor
2019-03-25 17:05:00 14.0 79.0 0.0 0.0 0.0 4.7 0.0 Kombisensor
2019-03-25 17:04:00 14.0 79.0 0.0 0.0 0.0 4.7 0.0 Kombisensor
2019-03-25 17:01:00 12.1 79.0 0.0 0.0 0.0 2.5 0.0 Kombisensor
2019-03-25 17:00:00 13.9 79.0 0.0 0.0 0.0 2.1 0.0 Kombisensor
2019-03-25 16:58:00 13.9 79.0 0.0 0.0 0.0 2.1 0.0 Kombisensor
2019-03-25 16:55:00 13.5 79.0 0.0 0.0 0.0 0.4 0.0 Kombisensor
2019-03-25 16:55:00 13.5 79.0 0.0 0.0 0.0 -0.4 0.0 Kombisensor
2019-03-25 16:52:00 12.8 79.0 0.0 0.0 0.0 2.1 0.0 Kombisensor
2019-03-25 16:50:00 12.7 79.0 0.0 0.0 0.0 2.0 0.0 Kombisensor
2019-03-25 16:49:00 12.7 79.0 0.0 0.0 0.0 2.0 0.0 Kombisensor
2019-03-25 16:46:00 14.7 79.0 0.0 0.0 0.0 4.1 0.0 Kombisensor
2019-03-25 16:45:00 14.4 79.0 0.0 0.0 0.0 3.8 0.0 Kombisensor
2019-03-25 16:43:00 14.4 79.0 0.0 0.0 0.0 2.8 0.0 Kombisensor
2019-03-25 16:41:00 13.9 79.0 0.0 0.0 0.0 1.3 0.0 Kombisensor
2019-03-25 16:40:00 10.3 79.0 0.0 0.0 0.0 -2.3 0.0 Kombisensor
2019-03-25 16:38:00 10.3 79.0 0.0 0.0 0.0 -0.7 0.0 Kombisensor
2019-03-25 16:35:00 9.8 79.0 0.0 0.0 0.0 -0.2 0.0 Kombisensor
2019-03-25 16:35:00 9.8 79.0 0.0 0.0 0.0 -0.2 0.0 Kombisensor
2019-03-25 16:32:00 9.7 79.0 0.0 0.0 0.0 -0.1 0.0 Kombisensor
2019-03-25 16:30:00 9.7 79.0 0.0 0.0 0.0 -0.1 0.0 Kombisensor
2019-03-25 16:29:00 9.7 79.0 0.0 0.0 0.0 -0.6 0.0 Kombisensor
2019-03-25 16:26:00 9.6 79.0 0.0 0.0 0.0 -0.4 0.0 Kombisensor
2019-03-25 16:25:00 8.8 79.0 0.0 0.0 0.0 -1.2 0.0 Kombisensor
2019-03-25 16:23:00 8.8 79.0 0.0 0.0 0.0 -1.2 0.0 Kombisensor
2019-03-25 16:20:00 8.8 79.0 0.0 0.0 0.0 -1.9 0.0 Kombisensor
2019-03-25 16:20:00 8.8 79.0 0.0 0.0 0.0 -5.3 0.0 Kombisensor
2019-03-25 16:17:00 9.4 79.0 0.0 0.0 0.0 -4.7 0.0 Kombisensor
2019-03-25 16:15:00 10.0 79.0 0.0 0.0 0.0 -5.8 0.0 Kombisensor
2019-03-25 16:14:00 10.0 79.0 0.0 0.0 0.0 -5.8 0.0 Kombisensor
2019-03-25 16:11:00 9.2 79.0 0.0 0.0 0.0 -4.6 0.0 Kombisensor
2019-03-25 16:10:00 9.0 79.0 0.0 0.0 0.0 -0.4 0.0 Kombisensor
2019-03-25 16:08:00 9.0 79.0 0.0 0.0 0.0 -0.8 0.0 Kombisensor
2019-03-25 16:05:00 9.3 79.0 0.0 0.0 0.0 -0.5 0.0 Kombisensor
2019-03-25 16:05:00 9.6 79.0 0.0 0.0 0.0 -0.2 0.0 Kombisensor
2019-03-25 16:02:00 9.6 79.0 0.0 0.0 0.0 -1.4 0.0 Kombisensor
2019-03-25 16:00:00 11.8 79.0 0.0 0.0 0.0 -3.6 0.0 Kombisensor
2019-03-25 15:59:00 11.8 79.0 0.0 0.0 0.0 -3.6 0.0 Kombisensor
2019-03-25 15:56:00 13.1 79.0 0.0 0.0 0.0 0.2 0.0 Kombisensor
2019-03-25 15:55:00 13.9 79.0 0.0 0.0 0.0 1.0 0.0 Kombisensor
2019-03-25 15:54:00 13.9 79.0 0.0 0.0 0.0 4.6 0.0 Kombisensor
2019-03-25 15:51:00 10.7 79.0 0.0 0.0 0.0 0.9 0.0 Kombisensor
2019-03-25 15:50:00 10.7 79.0 0.0 0.0 0.0 0.9 0.0 Kombisensor
2019-03-25 15:48:00 10.7 79.0 0.0 0.0 0.0 0.6 0.0 Kombisensor
2019-03-25 15:45:00 10.6 79.0 0.0 0.0 0.0 0.0 0.0 Kombisensor
2019-03-25 15:45:00 10.6 79.0 0.0 0.0 0.0 0.0 0.0 Kombisensor
2019-03-25 15:42:00 11.6 79.0 0.0 0.0 0.0 0.1 0.0 Kombisensor
2019-03-25 15:42:00 11.6 79.0 0.0 0.0 0.0 0.1 0.0 Kombisensor
2019-03-25 15:40:00 12.6 79.0 0.0 0.0 0.0 1.1 0.0 Kombisensor
2019-03-25 15:39:00 12.6 79.0 0.0 0.0 0.0 1.1 0.0 Kombisensor
2019-03-25 15:39:00 12.6 79.0 0.0 0.0 0.0 1.1 0.0 Kombisensor
2019-03-25 15:36:00 11.0 79.0 0.0 0.0 0.0 -1.2 0.0 Kombisensor
2019-03-25 15:35:00 10.0 79.0 0.0 0.0 0.0 -1.5 0.0 Kombisensor
2019-03-25 15:33:00 10.0 79.0 0.0 0.0 0.0 -1.5 0.0 Kombisensor
2019-03-25 15:30:00 9.8 79.0 0.0 0.0 0.0 -1.3 0.0 Kombisensor
2019-03-25 15:30:00 10.3 79.0 0.0 0.0 0.0 -0.5 0.0 Kombisensor
2019-03-25 15:27:00 10.3 79.0 0.0 0.0 0.0 -0.5 0.0 Kombisensor
2019-03-25 15:25:00 10.0 79.0 0.0 0.0 0.0 -1.0 0.0 Kombisensor
2019-03-25 15:24:00 10.0 79.0 0.0 0.0 0.0 -1.0 0.0 Kombisensor
2019-03-25 15:21:00 10.7 79.0 0.0 0.0 0.0 1.2 0.0 Kombisensor
2019-03-25 15:20:00 14.1 79.0 0.0 0.0 0.0 4.6 0.0 Kombisensor
2019-03-25 15:18:00 14.1 79.0 0.0 0.0 0.0 -0.2 0.0 Kombisensor
2019-03-25 15:15:00 15.8 79.0 0.0 0.0 0.0 0.9 0.0 Kombisensor
2019-03-25 15:15:00 13.8 79.0 0.0 0.0 0.0 -1.1 0.0 Kombisensor
2019-03-25 15:12:00 13.8 79.0 0.0 0.0 0.0 1.8 0.0 Kombisensor
2019-03-25 15:10:00 9.4 79.0 0.0 0.0 0.0 -0.7 0.0 Kombisensor
2019-03-25 15:10:00 9.4 79.0 0.0 0.0 0.0 -0.7 0.0 Kombisensor
2019-03-25 15:07:00 9.8 79.0 0.0 0.0 0.0 -2.4 0.0 Kombisensor
2019-03-25 15:05:00 9.8 79.0 0.0 0.0 0.0 -2.4 0.0 Kombisensor
2019-03-25 15:04:00 9.8 79.0 0.0 0.0 0.0 -1.7 0.0 Kombisensor
2019-03-25 15:01:00 11.0 79.0 0.0 0.0 0.0 -3.4 0.0 Kombisensor
2019-03-25 15:00:00 15.4 79.0 0.0 0.0 0.0 1.0 0.0 Kombisensor
2019-03-25 14:58:00 15.4 79.0 0.0 0.0 0.0 4.5 0.0 Kombisensor
2019-03-25 14:55:00 12.9 79.0 0.0 0.0 0.0 2.0 0.0 Kombisensor
2019-03-25 14:55:00 9.3 79.0 0.0 0.0 0.0 -4.1 0.0 Kombisensor
2019-03-25 14:52:00 9.3 79.0 0.0 0.0 0.0 -4.1 0.0 Kombisensor
2019-03-25 14:50:00 9.8 79.0 0.0 0.0 0.0 -1.1 0.0 Kombisensor
2019-03-25 14:49:00 9.8 79.0 0.0 0.0 0.0 -1.1 0.0 Kombisensor
2019-03-25 14:46:00 10.1 79.0 0.0 0.0 0.0 -0.8 0.0 Kombisensor
2019-03-25 14:45:00 10.6 79.0 0.0 0.0 0.0 1.2 0.0 Kombisensor
2019-03-25 14:43:00 10.6 79.0 0.0 0.0 0.0 1.2 0.0 Kombisensor
2019-03-25 14:40:00 11.5 79.0 0.0 0.0 0.0 0.8 0.0 Kombisensor
2019-03-25 14:40:00 12.2 79.0 0.0 0.0 0.0 1.5 0.0 Kombisensor
2019-03-25 14:37:00 12.2 79.0 0.0 0.0 0.0 -3.3 0.0 Kombisensor
2019-03-25 14:35:00 11.5 79.0 0.0 0.0 0.0 -2.1 0.0 Kombisensor
2019-03-25 14:34:00 11.5 79.0 0.0 0.0 0.0 -2.1 0.0 Kombisensor
2019-03-25 14:31:00 11.1 79.0 0.0 0.0 0.0 -0.7 0.0 Kombisensor
2019-03-25 14:30:00 10.8 79.0 0.0 0.0 0.0 -1.0 0.0 Kombisensor
2019-03-25 14:28:00 10.8 79.0 0.0 0.0 0.0 -1.6 0.0 Kombisensor
2019-03-25 14:26:00 11.1 79.0 0.0 0.0 0.0 -1.5 0.0 Kombisensor
2019-03-25 14:25:00 11.0 79.0 0.0 0.0 0.0 -1.6 0.0 Kombisensor
2019-03-25 14:23:00 11.0 79.0 0.0 0.0 0.0 -4.4 0.0 Kombisensor
2019-03-25 14:20:00 9.5 79.0 0.0 0.0 0.0 -5.5 0.0 Kombisensor
2019-03-25 14:20:00 9.5 79.0 0.0 0.0 0.0 -5.5 0.0 Kombisensor
2019-03-25 14:17:00 14.3 79.0 0.0 0.0 0.0 0.9 0.0 Kombisensor
2019-03-25 14:15:00 14.9 79.0 0.0 0.0 0.0 1.5 0.0 Kombisensor
2019-03-25 14:14:00 14.9 79.0 0.0 0.0 0.0 4.5 0.0 Kombisensor
2019-03-25 14:11:00 12.0 79.0 0.0 0.0 0.0 1.6 0.0 Kombisensor
2019-03-25 14:10:00 10.1 79.0 0.0 0.0 0.0 -1.4 0.0 Kombisensor
2019-03-25 14:08:00 10.1 79.0 0.0 0.0 0.0 -1.4 0.0 Kombisensor
2019-03-25 14:05:00 12.2 79.0 0.0 0.0 0.0 -4.5 0.0 Kombisensor
2019-03-25 14:05:00 11.5 79.0 0.0 0.0 0.0 -3.4 0.0 Kombisensor
2019-03-25 14:02:00 11.5 79.0 0.0 0.0 0.0 -3.4 0.0 Kombisensor
2019-03-25 14:00:00 14.4 79.0 0.0 0.0 0.0 -0.5 0.0 Kombisensor
2019-03-25 13:59:00 14.4 79.0 0.0 0.0 0.0 -0.5 0.0 Kombisensor
2019-03-25 13:56:00 10.9 79.0 0.0 0.0 0.0 0.9 0.0 Kombisensor
2019-03-25 13:55:00 13.4 79.0 0.0 0.0 0.0 3.4 0.0 Kombisensor
2019-03-25 13:53:00 13.4 79.0 0.0 0.0 0.0 1.6 0.0 Kombisensor
2019-03-25 13:50:00 10.9 79.0 0.0 0.0 0.0 -0.9 0.0 Kombisensor
2019-03-25 13:50:00 10.9 79.0 0.0 0.0 0.0 -0.9 0.0 Kombisensor
2019-03-25 13:47:00 10.9 79.0 0.0 0.0 0.0 -4.2 0.0 Kombisensor
2019-03-25 13:45:00 9.4 79.0 0.0 0.0 0.0 -5.7 0.0 Kombisensor
2019-03-25 13:44:00 9.4 79.0 0.0 0.0 0.0 -5.7 0.0 Kombisensor
2019-03-25 13:42:00 10.2 79.0 0.0 0.0 0.0 -2.0 0.0 Kombisensor
2019-03-25 13:40:00 10.7 79.0 0.0 0.0 0.0 -1.5 0.0 Kombisensor
2019-03-25 13:39:00 10.7 79.0 0.0 0.0 0.0 -1.9 0.0 Kombisensor
2019-03-25 13:36:00 15.5 79.0 0.0 0.0 0.0 2.9 0.0 Kombisensor
2019-03-25 13:35:00 13.6 79.0 0.0 0.0 0.0 1.0 0.0 Kombisensor
2019-03-25 13:33:00 13.6 79.0 0.0 0.0 0.0 5.4 0.0 Kombisensor
2019-03-25 13:30:00 11.8 79.0 0.0 0.0 0.0 3.6 0.0 Kombisensor
2019-03-25 13:30:00 12.4 79.0 0.0 0.0 0.0 4.2 0.0 Kombisensor
2019-03-25 13:27:00 12.4 79.0 0.0 0.0 0.0 4.0 0.0 Kombisensor
2019-03-25 13:25:00 12.6 79.0 0.0 0.0 0.0 3.8 0.0 Kombisensor
2019-03-25 13:24:00 12.6 79.0 0.0 0.0 0.0 3.8 0.0 Kombisensor
2019-03-25 13:21:00 15.4 79.0 0.0 0.0 0.0 6.3 0.0 Kombisensor
2019-03-25 13:20:00 15.0 79.0 0.0 0.0 0.0 5.9 0.0 Kombisensor
2019-03-25 13:18:00 15.0 79.0 0.0 0.0 0.0 3.8 0.0 Kombisensor
2019-03-25 13:15:00 13.4 79.0 0.0 0.0 0.0 2.2 0.0 Kombisensor
2019-03-25 13:15:00 10.4 79.0 0.0 0.0 0.0 -0.8 0.0 Kombisensor
2019-03-25 13:15:00 10.4 79.0 0.0 0.0 0.0 -0.8 0.0 Kombisensor
2019-03-25 13:12:00 10.4 79.0 0.0 0.0 0.0 1.0 0.0 Kombisensor
2019-03-25 13:12:00 10.4 79.0 0.0 0.0 0.0 1.0 0.0 Kombisensor
2019-03-25 13:10:00 11.5 79.0 0.0 0.0 0.0 2.1 0.0 Kombisensor
2019-03-25 13:09:00 11.5 79.0 0.0 0.0 0.0 2.1 0.0 Kombisensor
2019-03-25 13:06:00 16.7 79.0 0.0 0.0 0.0 8.4 0.0 Kombisensor
2019-03-25 13:05:00 14.9 79.0 0.0 0.0 0.0 6.6 0.0 Kombisensor
2019-03-25 13:00:00 14.9 79.0 0.0 0.0 0.0 6.1 0.0 Kombisensor
2019-03-25 13:00:00 14.1 79.0 0.0 0.0 0.0 5.3 0.0 Kombisensor
2019-03-25 12:58:00 14.1 79.0 0.0 0.0 0.0 5.2 0.0 Kombisensor
2019-03-25 12:55:00 10.0 79.0 0.0 0.0 0.0 1.1 0.0 Kombisensor
2019-03-25 12:55:00 10.0 79.0 0.0 0.0 0.0 1.1 0.0 Kombisensor
2019-03-25 12:52:00 11.8 79.0 0.0 0.0 0.0 2.2 0.0 Kombisensor
2019-03-25 12:50:00 11.8 79.0 0.0 0.0 0.0 2.2 0.0 Kombisensor
2019-03-25 12:49:00 14.2 79.0 0.0 0.0 0.0 5.0 0.0 Kombisensor
2019-03-25 12:46:00 15.1 79.0 0.0 0.0 0.0 5.9 0.0 Kombisensor
2019-03-25 12:45:00 15.1 79.0 0.0 0.0 0.0 5.9 0.0 Kombisensor
2019-03-25 12:43:00 14.1 79.0 0.0 0.0 0.0 6.1 0.0 Kombisensor
2019-03-25 12:40:00 12.2 79.0 0.0 0.0 0.0 4.4 0.0 Kombisensor
2019-03-25 12:40:00 12.2 79.0 0.0 0.0 0.0 4.4 0.0 Kombisensor
2019-03-25 12:37:00 12.6 79.0 0.0 0.0 0.0 5.3 0.0 Kombisensor
2019-03-25 12:35:00 12.6 79.0 0.0 0.0 0.0 5.7 0.0 Kombisensor
2019-03-25 12:34:00 10.6 79.0 0.0 0.0 0.0 3.7 0.0 Kombisensor
2019-03-25 12:31:00 8.2 79.0 0.0 0.0 0.0 1.3 0.0 Kombisensor
2019-03-25 12:30:00 8.2 79.0 0.0 0.0 0.0 1.5 0.0 Kombisensor
2019-03-25 12:28:00 8.4 79.0 0.0 0.0 0.0 2.1 0.0 Kombisensor
2019-03-25 12:25:00 8.8 79.0 0.0 0.0 0.0 2.5 0.0 Kombisensor
2019-03-25 12:25:00 8.8 79.0 0.0 0.0 0.0 2.5 0.0 Kombisensor
2019-03-25 12:22:00 9.1 79.0 0.0 0.0 0.0 2.9 0.0 Kombisensor
2019-03-25 12:20:00 9.1 79.0 0.0 0.0 0.0 2.9 0.0 Kombisensor
2019-03-25 12:19:00 11.2 79.0 0.0 0.0 0.0 5.0 0.0 Kombisensor
2019-03-25 12:16:00 11.2 79.0 0.0 0.0 0.0 4.8 0.0 Kombisensor
2019-03-25 12:15:00 11.2 79.0 0.0 0.0 0.0 4.8 0.0 Kombisensor
2019-03-25 12:14:00 9.8 79.0 0.0 0.0 0.0 2.3 0.0 Kombisensor
2019-03-25 12:11:00 9.4 79.0 0.0 0.0 0.0 1.9 0.0 Kombisensor
2019-03-25 12:10:00 9.4 79.0 0.0 0.0 0.0 1.9 0.0 Kombisensor
2019-03-25 12:08:00 8.2 79.0 0.0 0.0 0.0 1.1 0.0 Kombisensor
2019-03-25 12:05:00 8.3 79.0 0.0 0.0 0.0 1.2 0.0 Kombisensor
2019-03-25 12:05:00 8.3 79.0 0.0 0.0 0.0 1.2 0.0 Kombisensor
2019-03-25 12:02:00 8.8 79.0 0.0 0.0 0.0 -1.1 0.0 Kombisensor
2019-03-25 12:00:00 8.8 79.0 0.0 0.0 0.0 -1.1 0.0 Kombisensor
2019-03-25 11:59:00 10.4 79.0 0.0 0.0 0.0 0.5 0.0 Kombisensor
2019-03-25 11:56:00 8.9 79.0 0.0 0.0 0.0 0.2 0.0 Kombisensor
2019-03-25 11:55:00 8.9 79.0 0.0 0.0 0.0 0.9 0.0 Kombisensor
2019-03-25 11:53:00 8.6 79.0 0.0 0.0 0.0 0.6 0.0 Kombisensor
2019-03-25 11:50:00 9.6 79.0 0.0 0.0 0.0 1.7 0.0 Kombisensor
2019-03-25 11:50:00 9.6 79.0 0.0 0.0 0.0 1.7 0.0 Kombisensor
2019-03-25 11:47:00 9.2 79.0 0.0 0.0 0.0 -0.1 0.0 Kombisensor
2019-03-25 11:45:00 9.2 79.0 0.0 0.0 0.0 -0.1 0.0 Kombisensor
2019-03-25 11:44:00 8.0 79.0 0.0 0.0 0.0 -1.3 0.0 Kombisensor
2019-03-25 11:41:00 7.8 79.0 0.0 0.0 0.0 -2.2 0.0 Kombisensor
2019-03-25 11:40:00 7.8 79.0 0.0 0.0 0.0 -2.2 0.0 Kombisensor
2019-03-25 11:38:00 7.3 79.0 0.0 0.0 0.0 -1.5 0.0 Kombisensor
2019-03-25 11:35:00 6.9 79.0 0.0 0.0 0.0 -1.9 0.0 Kombisensor
2019-03-25 11:35:00 6.9 79.0 0.0 0.0 0.0 -1.9 0.0 Kombisensor
2019-03-25 11:32:00 6.9 79.0 0.0 0.0 0.0 -1.1 0.0 Kombisensor
2019-03-25 11:30:00 6.7 79.0 0.0 0.0 0.0 -1.3 0.0 Kombisensor
2019-03-25 11:27:00 6.3 79.0 0.0 0.0 0.0 -2.1 0.0 Kombisensor
2019-03-25 11:25:00 6.3 79.0 0.0 0.0 0.0 -2.1 0.0 Kombisensor
2019-03-25 11:24:00 6.0 79.0 0.0 0.0 0.0 -2.4 0.0 Kombisensor
2019-03-25 11:21:00 6.2 79.0 0.0 0.0 0.0 -2.0 0.0 Kombisensor
2019-03-25 11:20:00 6.2 79.0 0.0 0.0 0.0 -2.0 0.0 Kombisensor
2019-03-25 11:18:00 6.4 79.0 0.0 0.0 0.0 -1.7 0.0 Kombisensor
2019-03-25 11:15:00 6.4 79.0 0.0 0.0 0.0 -1.7 0.0 Kombisensor
2019-03-25 11:15:00 6.4 79.0 0.0 0.0 0.0 -1.7 0.0 Kombisensor
2019-03-25 11:12:00 7.5 79.0 0.0 0.0 0.0 -1.3 0.0 Kombisensor
2019-03-25 11:10:00 7.5 79.0 0.0 0.0 0.0 -1.1 0.0 Kombisensor
2019-03-25 11:09:00 7.2 79.0 0.0 0.0 0.0 -1.4 0.0 Kombisensor
2019-03-25 11:06:00 7.1 79.0 0.0 0.0 0.0 -0.9 0.0 Kombisensor
2019-03-25 11:05:00 7.1 79.0 0.0 0.0 0.0 -0.7 0.0 Kombisensor
2019-03-25 11:03:00 8.8 79.0 0.0 0.0 0.0 1.0 0.0 Kombisensor
2019-03-25 11:03:00 8.8 79.0 0.0 0.0 0.0 1.0 0.0 Kombisensor
2019-03-25 11:00:00 9.9 79.0 0.0 0.0 0.0 1.7 0.0 Kombisensor
2019-03-25 11:00:00 9.9 79.0 0.0 0.0 0.0 1.7 0.0 Kombisensor
2019-03-25 10:57:00 8.7 79.0 0.0 0.0 0.0 0.0 0.0 Kombisensor
2019-03-25 10:55:00 8.0 79.0 0.0 0.0 0.0 -0.7 0.0 Kombisensor
2019-03-25 10:54:00 8.0 79.0 0.0 0.0 0.0 -0.7 0.0 Kombisensor
2019-03-25 10:51:00 7.9 79.0 0.0 0.0 0.0 0.4 0.0 Kombisensor
2019-03-25 10:50:00 7.9 79.0 0.0 0.0 0.0 0.4 0.0 Kombisensor
2019-03-25 10:46:00 9.3 79.0 0.0 0.0 0.0 2.6 0.0 Kombisensor
2019-03-25 10:45:00 9.3 79.0 0.0 0.0 0.0 2.6 0.0 Kombisensor
2019-03-25 10:43:00 9.3 79.0 0.0 0.0 0.0 2.2 0.0 Kombisensor
2019-03-25 10:40:00 10.0 79.0 0.0 0.0 0.0 2.9 0.0 Kombisensor
2019-03-25 10:40:00 10.0 79.0 0.0 0.0 0.0 2.9 0.0 Kombisensor
2019-03-25 10:37:00 8.8 79.0 0.0 0.0 0.0 1.2 0.0 Kombisensor
2019-03-25 10:35:00 8.8 79.0 0.0 0.0 0.0 1.2 0.0 Kombisensor
2019-03-25 10:31:00 8.0 79.0 0.0 0.0 0.0 0.3 0.0 Kombisensor
2019-03-25 10:30:00 8.0 79.0 0.0 0.0 0.0 0.7 0.0 Kombisensor
2019-03-25 10:28:00 7.6 79.0 0.0 0.0 0.0 0.3 0.0 Kombisensor
2019-03-25 10:25:00 8.4 79.0 0.0 0.0 0.0 1.7 0.0 Kombisensor
2019-03-25 10:25:00 8.4 79.0 0.0 0.0 0.0 1.7 0.0 Kombisensor
2019-03-25 10:22:00 8.4 79.0 0.0 0.0 0.0 1.7 0.0 Kombisensor
2019-03-25 10:20:00 8.2 79.0 0.0 0.0 0.0 1.7 0.0 Kombisensor
2019-03-25 10:19:00 8.2 79.0 0.0 0.0 0.0 1.7 0.0 Kombisensor
2019-03-25 10:16:00 8.1 79.0 0.0 0.0 0.0 1.7 0.0 Kombisensor
2019-03-25 10:15:00 8.1 79.0 0.0 0.0 0.0 1.7 0.0 Kombisensor
2019-03-25 10:13:00 8.8 79.0 0.0 0.0 0.0 2.5 0.0 Kombisensor
2019-03-25 10:10:00 8.6 79.0 0.0 0.0 0.0 2.3 0.0 Kombisensor
2019-03-25 10:10:00 8.6 79.0 0.0 0.0 0.0 2.3 0.0 Kombisensor
2019-03-25 10:07:00 8.0 79.0 0.0 0.0 0.0 2.2 0.0 Kombisensor
2019-03-25 10:05:00 7.8 79.0 0.0 0.0 0.0 2.0 0.0 Kombisensor
2019-03-25 10:04:00 7.8 79.0 0.0 0.0 0.0 2.0 0.0 Kombisensor
2019-03-25 10:02:00 8.2 79.0 0.0 0.0 0.0 2.5 0.0 Kombisensor
2019-03-25 10:00:00 8.2 79.0 0.0 0.0 0.0 2.5 0.0 Kombisensor
2019-03-25 09:59:00 8.8 79.0 0.0 0.0 0.0 3.2 0.0 Kombisensor
2019-03-25 09:56:00 8.7 79.0 0.0 0.0 0.0 3.2 0.0 Kombisensor
2019-03-25 09:55:00 8.7 79.0 0.0 0.0 0.0 3.2 0.0 Kombisensor
2019-03-25 09:53:00 7.7 79.0 0.0 0.0 0.0 2.4 0.0 Kombisensor
2019-03-25 09:50:00 7.5 79.0 0.0 0.0 0.0 2.2 0.0 Kombisensor
2019-03-25 09:50:00 7.5 79.0 0.0 0.0 0.0 2.2 0.0 Kombisensor
2019-03-25 09:47:00 6.7 79.0 0.0 0.0 0.0 1.5 0.0 Kombisensor
2019-03-25 09:47:00 6.7 79.0 0.0 0.0 0.0 1.6 0.0 Kombisensor
2019-03-25 09:45:00 6.7 79.0 0.0 0.0 0.0 1.6 0.0 Kombisensor
2019-03-25 09:44:00 6.6 79.0 0.0 0.0 0.0 1.5 0.0 Kombisensor
2019-03-25 09:41:00 7.1 79.0 0.0 0.0 0.0 2.2 0.0 Kombisensor
2019-03-25 09:40:00 7.1 79.0 0.0 0.0 0.0 2.2 0.0 Kombisensor
2019-03-25 09:38:00 7.7 79.0 0.0 0.0 0.0 2.8 0.0 Kombisensor
2019-03-25 09:35:00 7.6 79.0 0.0 0.0 0.0 2.6 0.0 Kombisensor
2019-03-25 09:35:00 7.6 79.0 0.0 0.0 0.0 2.6 0.0 Kombisensor
2019-03-25 09:32:00 7.7 79.0 0.0 0.0 0.0 2.3 0.0 Kombisensor
2019-03-25 09:30:00 7.3 79.0 0.0 0.0 0.0 1.9 0.0 Kombisensor
2019-03-25 09:29:00 7.3 79.0 0.0 0.0 0.0 1.9 0.0 Kombisensor
2019-03-25 09:26:00 6.7 79.0 0.0 0.0 0.0 1.1 0.0 Kombisensor
2019-03-25 09:25:00 6.7 79.0 0.0 0.0 0.0 1.1 0.0 Kombisensor
2019-03-25 09:23:00 6.7 79.0 0.0 0.0 0.0 1.2 0.0 Kombisensor
2019-03-25 09:20:00 6.5 79.0 0.0 0.0 0.0 1.0 0.0 Kombisensor
2019-03-25 09:20:00 6.5 79.0 0.0 0.0 0.0 1.0 0.0 Kombisensor
2019-03-25 09:18:00 6.3 79.0 0.0 0.0 0.0 1.1 0.0 Kombisensor
2019-03-25 09:15:00 6.4 79.0 0.0 0.0 0.0 1.2 0.0 Kombisensor
2019-03-25 09:15:00 6.4 79.0 0.0 0.0 0.0 1.2 0.0 Kombisensor
2019-03-25 09:12:00 6.3 79.0 0.0 0.0 0.0 1.2 0.0 Kombisensor
2019-03-25 09:10:00 6.3 79.0 0.0 0.0 0.0 1.2 0.0 Kombisensor
2019-03-25 09:09:00 6.1 79.0 0.0 0.0 0.0 1.0 0.0 Kombisensor
2019-03-25 09:06:00 5.8 79.0 0.0 0.0 0.0 0.8 0.0 Kombisensor
2019-03-25 09:05:00 5.8 79.0 0.0 0.0 0.0 0.8 0.0 Kombisensor
2019-03-25 09:03:00 5.8 79.0 0.0 0.0 0.0 0.8 0.0 Kombisensor
2019-03-25 09:00:00 5.7 79.0 0.0 0.0 0.0 0.6 0.0 Kombisensor
2019-03-25 09:00:00 5.7 79.0 0.0 0.0 0.0 0.6 0.0 Kombisensor
2019-03-25 08:57:00 5.6 79.0 0.0 0.0 0.0 0.6 0.0 Kombisensor
2019-03-25 08:55:00 5.5 79.0 0.0 0.0 0.0 0.6 0.0 Kombisensor
2019-03-25 08:54:00 5.5 79.0 0.0 0.0 0.0 0.6 0.0 Kombisensor
2019-03-25 08:51:00 5.3 79.0 0.0 0.0 0.0 0.5 0.0 Kombisensor
2019-03-25 08:50:00 5.3 79.0 0.0 0.0 0.0 0.6 0.0 Kombisensor
2019-03-25 08:48:00 5.2 79.0 0.0 0.0 0.0 0.5 0.0 Kombisensor
2019-03-25 08:45:00 5.1 79.0 0.0 0.0 0.0 0.4 0.0 Kombisensor
2019-03-25 08:45:00 5.1 79.0 0.0 0.0 0.0 0.4 0.0 Kombisensor
2019-03-25 08:42:00 4.9 79.0 0.0 0.0 0.0 0.3 0.0 Kombisensor
2019-03-25 08:40:00 4.9 79.0 0.0 0.0 0.0 0.3 0.0 Kombisensor
2019-03-25 08:39:00 4.9 79.0 0.0 0.0 0.0 0.3 0.0 Kombisensor
2019-03-25 08:36:00 5.0 79.0 0.0 0.0 0.0 0.5 0.0 Kombisensor
2019-03-25 08:35:00 5.0 79.0 0.0 0.0 0.0 0.5 0.0 Kombisensor
2019-03-25 08:34:00 5.2 79.0 0.0 0.0 0.0 0.7 0.0 Kombisensor
2019-03-25 08:31:00 5.4 79.0 0.0 0.0 0.0 0.8 0.0 Kombisensor
2019-03-25 08:31:00 5.4 79.0 0.0 0.0 0.0 0.8 0.0 Kombisensor
2019-03-25 08:30:00 5.4 79.0 0.0 0.0 0.0 0.8 0.0 Kombisensor
2019-03-25 08:28:00 5.5 79.0 0.0 0.0 0.0 0.9 0.0 Kombisensor
2019-03-25 08:25:00 5.6 79.0 0.0 0.0 0.0 1.0 0.0 Kombisensor
2019-03-25 08:25:00 5.6 79.0 0.0 0.0 0.0 1.0 0.0 Kombisensor
2019-03-25 08:22:00 5.5 79.0 0.0 0.0 0.0 0.9 0.0 Kombisensor
2019-03-25 08:20:00 5.5 79.0 0.0 0.0 0.0 0.9 0.0 Kombisensor
2019-03-25 08:19:00 5.5 79.0 0.0 0.0 0.0 0.9 0.0 Kombisensor
2019-03-25 08:16:00 5.2 79.0 0.0 0.0 0.0 0.7 0.0 Kombisensor
2019-03-25 08:15:00 5.2 79.0 0.0 0.0 0.0 0.6 0.0 Kombisensor
2019-03-25 08:13:00 5.2 79.0 0.0 0.0 0.0 0.6 0.0 Kombisensor
2019-03-25 08:10:00 5.1 79.0 0.0 0.0 0.0 0.6 0.0 Kombisensor
2019-03-25 08:10:00 5.1 79.0 0.0 0.0 0.0 0.6 0.0 Kombisensor
2019-03-25 08:07:00 5.1 79.0 0.0 0.0 0.0 0.8 0.0 Kombisensor
2019-03-25 08:05:00 5.0 79.0 0.0 0.0 0.0 0.9 0.0 Kombisensor
2019-03-25 08:04:00 5.0 79.0 0.0 0.0 0.0 0.9 0.0 Kombisensor
2019-03-25 08:01:00 5.1 79.0 0.0 0.0 0.0 1.2 0.0 Kombisensor
2019-03-25 08:00:00 5.1 79.0 0.0 0.0 0.0 1.2 0.0 Kombisensor
2019-03-25 07:58:00 5.0 79.0 0.0 0.0 0.0 1.2 0.0 Kombisensor
2019-03-25 07:55:00 4.9 79.0 0.0 0.0 0.0 1.3 0.0 Kombisensor
2019-03-25 07:55:00 4.9 79.0 0.0 0.0 0.0 1.3 0.0 Kombisensor
2019-03-25 07:52:00 4.8 79.0 0.0 0.0 0.0 1.5 0.0 Kombisensor
2019-03-25 07:50:00 4.7 79.0 0.0 0.0 0.0 1.4 0.0 Kombisensor
2019-03-25 07:50:00 4.7 79.0 0.0 0.0 0.0 1.4 0.0 Kombisensor
2019-03-25 07:47:00 4.7 79.0 0.0 0.0 0.0 1.2 0.0 Kombisensor
2019-03-25 07:45:00 4.7 79.0 0.0 0.0 0.0 1.2 0.0 Kombisensor
2019-03-25 07:44:00 4.7 79.0 0.0 0.0 0.0 1.4 0.0 Kombisensor
2019-03-25 07:41:00 4.6 79.0 0.0 0.0 0.0 1.3 0.0 Kombisensor
2019-03-25 07:40:00 4.6 79.0 0.0 0.0 0.0 1.3 0.0 Kombisensor
2019-03-25 07:38:00 4.5 79.0 0.0 0.0 0.0 1.4 0.0 Kombisensor
2019-03-25 07:35:00 4.5 79.0 0.0 0.0 0.0 1.4 0.0 Kombisensor
2019-03-25 07:35:00 4.5 79.0 0.0 0.0 0.0 1.4 0.0 Kombisensor
2019-03-25 07:32:00 4.5 79.0 0.0 0.0 0.0 1.5 0.0 Kombisensor
2019-03-25 07:30:00 4.6 79.0 0.0 0.0 0.0 1.5 0.0 Kombisensor
2019-03-25 07:29:00 4.6 79.0 0.0 0.0 0.0 1.5 0.0 Kombisensor
2019-03-25 07:26:00 4.6 79.0 0.0 0.0 0.0 1.5 0.0 Kombisensor
2019-03-25 07:25:00 4.6 79.0 0.0 0.0 0.0 1.5 0.0 Kombisensor
2019-03-25 07:23:00 4.6 79.0 0.0 0.0 0.0 1.5 0.0 Kombisensor
2019-03-25 07:20:00 4.6 79.0 0.0 0.0 0.0 1.4 0.0 Kombisensor
2019-03-25 07:20:00 4.6 79.0 0.0 0.0 0.0 1.4 0.0 Kombisensor
2019-03-25 07:17:00 4.5 79.0 0.0 0.0 0.0 1.3 0.0 Kombisensor
2019-03-25 07:15:00 4.6 79.0 0.0 0.0 0.0 1.4 0.0 Kombisensor
2019-03-25 07:14:00 4.6 79.0 0.0 0.0 0.0 1.4 0.0 Kombisensor
2019-03-25 07:11:00 4.5 79.0 0.0 0.0 0.0 1.2 0.0 Kombisensor
2019-03-25 07:10:00 4.5 79.0 0.0 0.0 0.0 1.2 0.0 Kombisensor
2019-03-25 07:08:00 4.3 79.0 0.0 0.0 0.0 0.9 0.0 Kombisensor
2019-03-25 07:05:00 4.1 79.0 0.0 0.0 0.0 0.8 0.0 Kombisensor
2019-03-25 07:05:00 4.1 79.0 0.0 0.0 0.0 0.8 0.0 Kombisensor
2019-03-25 07:03:00 4.0 79.0 0.0 0.0 0.0 0.8 0.0 Kombisensor
2019-03-25 07:00:00 3.9 79.0 0.0 0.0 0.0 0.7 0.0 Kombisensor
2019-03-25 07:00:00 3.9 79.0 0.0 0.0 0.0 0.7 0.0 Kombisensor
2019-03-25 06:57:00 3.8 79.0 0.0 0.0 0.0 0.6 0.0 Kombisensor
2019-03-25 06:55:00 3.6 79.0 0.0 0.0 0.0 0.4 0.0 Kombisensor
2019-03-25 06:54:00 3.6 79.0 0.0 0.0 0.0 0.4 0.0 Kombisensor
2019-03-25 06:51:00 3.3 79.0 0.0 0.0 0.0 0.2 0.0 Kombisensor
2019-03-25 06:50:00 3.3 79.0 0.0 0.0 0.0 0.2 0.0 Kombisensor
2019-03-25 06:48:00 3.5 79.0 0.0 0.0 0.0 0.4 0.0 Kombisensor
2019-03-25 06:45:00 3.5 79.0 0.0 0.0 0.0 0.3 0.0 Kombisensor
2019-03-25 06:45:00 3.5 79.0 0.0 0.0 0.0 0.3 0.0 Kombisensor
2019-03-25 06:42:00 3.3 79.0 0.0 0.0 0.0 0.1 0.0 Kombisensor
2019-03-25 06:40:00 3.3 79.0 0.0 0.0 0.0 0.2 0.0 Kombisensor
2019-03-25 06:39:00 3.3 79.0 0.0 0.0 0.0 0.2 0.0 Kombisensor
2019-03-25 06:36:00 3.1 79.0 0.0 0.0 0.0 0.0 0.0 Kombisensor
2019-03-25 06:35:00 3.1 79.0 0.0 0.0 0.0 0.0 0.0 Kombisensor
2019-03-25 06:33:00 3.0 79.0 0.0 0.0 0.0 0.2 0.0 Kombisensor
2019-03-25 06:30:00 3.1 79.0 0.0 0.0 0.0 0.5 0.0 Kombisensor
2019-03-25 06:30:00 3.1 79.0 0.0 0.0 0.0 0.5 0.0 Kombisensor
2019-03-25 06:27:00 3.1 79.0 0.0 0.0 0.0 0.5 0.0 Kombisensor
2019-03-25 06:25:00 3.1 79.0 0.0 0.0 0.0 0.5 0.0 Kombisensor
2019-03-25 06:24:00 3.1 79.0 0.0 0.0 0.0 0.5 0.0 Kombisensor
2019-03-25 06:22:00 3.0 79.0 0.0 0.0 0.0 0.5 0.0 Kombisensor
2019-03-25 06:20:00 3.2 79.0 0.0 0.0 0.0 0.7 0.0 Kombisensor
2019-03-25 06:19:00 3.2 79.0 0.0 0.0 0.0 0.7 0.0 Kombisensor
2019-03-25 06:16:00 3.2 79.0 0.0 0.0 0.0 0.7 0.0 Kombisensor
2019-03-25 06:15:00 3.2 79.0 0.0 0.0 0.0 0.7 0.0 Kombisensor
2019-03-25 06:13:00 3.2 79.0 0.0 0.0 0.0 0.7 0.0 Kombisensor
2019-03-25 06:10:00 3.3 79.0 0.0 0.0 0.0 0.8 0.0 Kombisensor
2019-03-25 06:10:00 3.3 79.0 0.0 0.0 0.0 0.8 0.0 Kombisensor
2019-03-25 06:07:00 3.4 79.0 0.0 0.0 0.0 1.0 0.0 Kombisensor
2019-03-25 06:05:00 3.3 79.0 0.0 0.0 0.0 0.9 0.0 Kombisensor
2019-03-25 06:04:00 3.3 79.0 0.0 0.0 0.0 0.9 0.0 Kombisensor
2019-03-25 06:01:00 3.2 79.0 0.0 0.0 0.0 0.7 0.0 Kombisensor
2019-03-25 06:00:00 3.2 79.0 0.0 0.0 0.0 0.9 0.0 Kombisensor
2019-03-25 05:58:00 3.2 79.0 0.0 0.0 0.0 0.9 0.0 Kombisensor
2019-03-25 05:55:00 3.2 79.0 0.0 0.0 0.0 0.9 0.0 Kombisensor
2019-03-25 05:55:00 3.2 79.0 0.0 0.0 0.0 0.9 0.0 Kombisensor
2019-03-25 05:52:00 3.2 79.0 0.0 0.0 0.0 0.8 0.0 Kombisensor
2019-03-25 05:50:00 3.1 79.0 0.0 0.0 0.0 0.7 0.0 Kombisensor
2019-03-25 05:49:00 3.1 79.0 0.0 0.0 0.0 0.7 0.0 Kombisensor
2019-03-25 05:46:00 3.2 79.0 0.0 0.0 0.0 0.6 0.0 Kombisensor
2019-03-25 05:45:00 3.2 79.0 0.0 0.0 0.0 0.6 0.0 Kombisensor
2019-03-25 05:43:00 3.2 79.0 0.0 0.0 0.0 0.4 0.0 Kombisensor
2019-03-25 05:40:00 3.1 79.0 0.0 0.0 0.0 0.2 0.0 Kombisensor
2019-03-25 05:40:00 3.1 79.0 0.0 0.0 0.0 0.2 0.0 Kombisensor
2019-03-25 05:38:00 3.1 79.0 0.0 0.0 0.0 0.1 0.0 Kombisensor
2019-03-25 05:35:00 3.1 79.0 0.0 0.0 0.0 0.1 0.0 Kombisensor
2019-03-25 05:35:00 3.1 79.0 0.0 0.0 0.0 0.1 0.0 Kombisensor
2019-03-25 05:32:00 2.8 79.0 0.0 0.0 0.0 0.1 0.0 Kombisensor
2019-03-25 05:30:00 2.6 79.0 0.0 0.0 0.0 -0.1 0.0 Kombisensor
2019-03-25 05:29:00 2.6 79.0 0.0 0.0 0.0 0.0 0.0 Kombisensor
2019-03-25 05:26:00 2.6 79.0 0.0 0.0 0.0 0.0 0.0 Kombisensor
2019-03-25 05:25:00 2.6 79.0 0.0 0.0 0.0 0.0 0.0 Kombisensor
2019-03-25 05:20:00 2.5 79.0 0.0 0.0 0.0 0.0 0.0 Kombisensor
2019-03-25 05:20:00 2.5 79.0 0.0 0.0 0.0 0.1 0.0 Kombisensor
2019-03-25 05:17:00 2.5 79.0 0.0 0.0 0.0 0.1 0.0 Kombisensor
2019-03-25 05:15:00 2.5 79.0 0.0 0.0 0.0 0.1 0.0 Kombisensor
2019-03-25 05:14:00 2.5 79.0 0.0 0.0 0.0 0.1 0.0 Kombisensor
2019-03-25 05:11:00 2.5 79.0 0.0 0.0 0.0 0.1 0.0 Kombisensor
2019-03-25 05:10:00 2.5 79.0 0.0 0.0 0.0 0.2 0.0 Kombisensor
2019-03-25 05:08:00 2.3 79.0 0.0 0.0 0.0 0.0 0.0 Kombisensor
2019-03-25 05:05:00 2.4 79.0 0.0 0.0 0.0 0.0 0.0 Kombisensor
2019-03-25 05:05:00 2.4 79.0 0.0 0.0 0.0 0.0 0.0 Kombisensor
2019-03-25 05:02:00 2.5 79.0 0.0 0.0 0.0 0.2 0.0 Kombisensor
2019-03-25 05:00:00 2.3 79.0 0.0 0.0 0.0 0.0 0.0 Kombisensor
2019-03-25 04:59:00 2.3 79.0 0.0 0.0 0.0 0.0 0.0 Kombisensor
2019-03-25 04:56:00 2.3 79.0 0.0 0.0 0.0 0.2 0.0 Kombisensor
2019-03-25 04:55:00 2.3 79.0 0.0 0.0 0.0 0.2 0.0 Kombisensor
2019-03-25 04:54:00 2.3 79.0 0.0 0.0 0.0 0.1 0.0 Kombisensor
2019-03-25 04:51:00 2.4 79.0 0.0 0.0 0.0 0.4 0.0 Kombisensor
2019-03-25 04:50:00 2.4 79.0 0.0 0.0 0.0 0.4 0.0 Kombisensor
2019-03-25 04:48:00 2.5 79.0 0.0 0.0 0.0 0.5 0.0 Kombisensor
2019-03-25 04:45:00 2.6 79.0 0.0 0.0 0.0 0.6 0.0 Kombisensor
2019-03-25 04:45:00 2.6 79.0 0.0 0.0 0.0 0.6 0.0 Kombisensor
2019-03-25 04:42:00 2.8 79.0 0.0 0.0 0.0 0.8 0.0 Kombisensor
2019-03-25 04:40:00 2.9 79.0 0.0 0.0 0.0 0.9 0.0 Kombisensor
2019-03-25 04:39:00 2.9 79.0 0.0 0.0 0.0 0.9 0.0 Kombisensor
2019-03-25 04:36:00 3.0 79.0 0.0 0.0 0.0 0.9 0.0 Kombisensor
2019-03-25 04:35:00 3.0 79.0 0.0 0.0 0.0 0.9 0.0 Kombisensor
2019-03-25 04:33:00 2.8 79.0 0.0 0.0 0.0 0.7 0.0 Kombisensor
2019-03-25 04:30:00 2.7 79.0 0.0 0.0 0.0 0.7 0.0 Kombisensor
2019-03-25 04:30:00 2.7 79.0 0.0 0.0 0.0 0.7 0.0 Kombisensor
2019-03-25 04:27:00 2.6 79.0 0.0 0.0 0.0 0.6 0.0 Kombisensor
2019-03-25 04:25:00 2.6 79.0 0.0 0.0 0.0 0.5 0.0 Kombisensor
2019-03-25 04:24:00 2.6 79.0 0.0 0.0 0.0 0.5 0.0 Kombisensor
2019-03-25 04:21:00 2.5 79.0 0.0 0.0 0.0 0.3 0.0 Kombisensor
2019-03-25 04:20:00 2.4 79.0 0.0 0.0 0.0 0.2 0.0 Kombisensor
2019-03-25 04:18:00 2.4 79.0 0.0 0.0 0.0 0.2 0.0 Kombisensor
2019-03-25 04:15:00 2.4 79.0 0.0 0.0 0.0 0.1 0.0 Kombisensor
2019-03-25 04:15:00 2.4 79.0 0.0 0.0 0.0 0.1 0.0 Kombisensor
2019-03-25 04:12:00 2.4 79.0 0.0 0.0 0.0 -0.1 0.0 Kombisensor
2019-03-25 04:10:00 2.3 79.0 0.0 0.0 0.0 -0.3 0.0 Kombisensor
2019-03-25 04:09:00 2.3 79.0 0.0 0.0 0.0 -0.3 0.0 Kombisensor
2019-03-25 04:07:00 2.3 79.0 0.0 0.0 0.0 -0.3 0.0 Kombisensor
2019-03-25 04:05:00 2.4 79.0 0.0 0.0 0.0 -0.2 0.0 Kombisensor
2019-03-25 04:04:00 2.4 79.0 0.0 0.0 0.0 -0.2 0.0 Kombisensor
2019-03-25 04:01:00 2.3 79.0 0.0 0.0 0.0 -0.4 0.0 Kombisensor
2019-03-25 04:00:00 2.3 79.0 0.0 0.0 0.0 -0.4 0.0 Kombisensor
2019-03-25 03:58:00 2.3 79.0 0.0 0.0 0.0 -0.5 0.0 Kombisensor
2019-03-25 03:55:00 2.1 79.0 0.0 0.0 0.0 -0.7 0.0 Kombisensor
2019-03-25 03:55:00 2.1 79.0 0.0 0.0 0.0 -0.8 0.0 Kombisensor
2019-03-25 03:52:00 2.2 79.0 0.0 0.0 0.0 -0.7 0.0 Kombisensor
2019-03-25 03:50:00 2.0 79.0 0.0 0.0 0.0 -1.0 0.0 Kombisensor
2019-03-25 03:49:00 2.0 79.0 0.0 0.0 0.0 -1.0 0.0 Kombisensor
2019-03-25 03:46:00 2.0 79.0 0.0 0.0 0.0 -1.3 0.0 Kombisensor
2019-03-25 03:45:00 2.0 79.0 0.0 0.0 0.0 -1.4 0.0 Kombisensor
2019-03-25 03:43:00 2.0 79.0 0.0 0.0 0.0 -1.4 0.0 Kombisensor
2019-03-25 03:40:00 2.0 79.0 0.0 0.0 0.0 -1.7 0.0 Kombisensor
2019-03-25 03:40:00 2.0 79.0 0.0 0.0 0.0 -2.0 0.0 Kombisensor
2019-03-25 03:37:00 2.1 79.0 0.0 0.0 0.0 -1.9 0.0 Kombisensor
2019-03-25 03:35:00 2.1 79.0 0.0 0.0 0.0 -1.9 0.0 Kombisensor
2019-03-25 03:34:00 2.1 79.0 0.0 0.0 0.0 -1.9 0.0 Kombisensor
2019-03-25 03:31:00 2.0 79.0 0.0 0.0 0.0 -1.9 0.0 Kombisensor
2019-03-25 03:30:00 2.0 79.0 0.0 0.0 0.0 -1.9 0.0 Kombisensor
2019-03-25 03:28:00 2.0 79.0 0.0 0.0 0.0 -1.9 0.0 Kombisensor
2019-03-25 03:26:00 2.1 79.0 0.0 0.0 0.0 -1.7 0.0 Kombisensor
2019-03-25 03:25:00 2.1 79.0 0.0 0.0 0.0 -1.7 0.0 Kombisensor
2019-03-25 03:23:00 2.1 79.0 0.0 0.0 0.0 -1.7 0.0 Kombisensor
2019-03-25 03:20:00 2.2 79.0 0.0 0.0 0.0 -1.6 0.0 Kombisensor
2019-03-25 03:20:00 2.2 79.0 0.0 0.0 0.0 -1.6 0.0 Kombisensor
2019-03-25 03:17:00 2.2 79.0 0.0 0.0 0.0 -1.6 0.0 Kombisensor
2019-03-25 03:15:00 2.3 79.0 0.0 0.0 0.0 -1.5 0.0 Kombisensor
2019-03-25 03:14:00 2.3 79.0 0.0 0.0 0.0 -1.6 0.0 Kombisensor
2019-03-25 03:11:00 2.5 79.0 0.0 0.0 0.0 -1.4 0.0 Kombisensor
2019-03-25 03:10:00 2.6 79.0 0.0 0.0 0.0 -1.3 0.0 Kombisensor
2019-03-25 03:08:00 2.6 79.0 0.0 0.0 0.0 -1.3 0.0 Kombisensor
2019-03-25 03:05:00 2.6 79.0 0.0 0.0 0.0 -1.4 0.0 Kombisensor
2019-03-25 03:05:00 2.6 79.0 0.0 0.0 0.0 -1.3 0.0 Kombisensor
2019-03-25 03:02:00 2.6 79.0 0.0 0.0 0.0 -1.3 0.0 Kombisensor
2019-03-25 03:00:00 2.7 79.0 0.0 0.0 0.0 -1.3 0.0 Kombisensor
2019-03-25 02:59:00 2.7 79.0 0.0 0.0 0.0 -1.3 0.0 Kombisensor
2019-03-25 02:56:00 2.8 79.0 0.0 0.0 0.0 -1.2 0.0 Kombisensor
2019-03-25 02:55:00 2.9 79.0 0.0 0.0 0.0 -1.0 0.0 Kombisensor
2019-03-25 02:53:00 2.9 79.0 0.0 0.0 0.0 -1.0 0.0 Kombisensor
2019-03-25 02:50:00 3.0 79.0 0.0 0.0 0.0 -1.0 0.0 Kombisensor
2019-03-25 02:50:00 3.0 79.0 0.0 0.0 0.0 -1.0 0.0 Kombisensor
2019-03-25 02:47:00 3.3 79.0 0.0 0.0 0.0 -0.7 0.0 Kombisensor
2019-03-25 02:45:00 3.4 79.0 0.0 0.0 0.0 -0.7 0.0 Kombisensor
2019-03-25 02:44:00 3.4 79.0 0.0 0.0 0.0 -0.7 0.0 Kombisensor
2019-03-25 02:41:00 3.7 79.0 0.0 0.0 0.0 -0.4 0.0 Kombisensor
2019-03-25 02:40:00 4.0 79.0 0.0 0.0 0.0 -0.1 0.0 Kombisensor
2019-03-25 02:39:00 4.0 79.0 0.0 0.0 0.0 -0.2 0.0 Kombisensor
2019-03-25 02:36:00 4.0 79.0 0.0 0.0 0.0 -0.3 0.0 Kombisensor
2019-03-25 02:35:00 4.0 79.0 0.0 0.0 0.0 -0.3 0.0 Kombisensor
2019-03-25 02:33:00 3.9 79.0 0.0 0.0 0.0 -0.5 0.0 Kombisensor
2019-03-25 02:30:00 3.9 79.0 0.0 0.0 0.0 -0.7 0.0 Kombisensor
2019-03-25 02:30:00 3.9 79.0 0.0 0.0 0.0 -0.7 0.0 Kombisensor
2019-03-25 02:27:00 3.9 79.0 0.0 0.0 0.0 -0.9 0.0 Kombisensor
2019-03-25 02:25:00 3.8 79.0 0.0 0.0 0.0 -1.0 0.0 Kombisensor
2019-03-25 02:24:00 3.8 79.0 0.0 0.0 0.0 -1.0 0.0 Kombisensor
2019-03-25 02:21:00 3.8 79.0 0.0 0.0 0.0 -1.2 0.0 Kombisensor
2019-03-25 02:20:00 3.8 79.0 0.0 0.0 0.0 -1.5 0.0 Kombisensor
2019-03-25 02:18:00 3.8 79.0 0.0 0.0 0.0 -1.5 0.0 Kombisensor
2019-03-25 02:15:00 3.8 79.0 0.0 0.0 0.0 -1.6 0.0 Kombisensor
2019-03-25 02:15:00 3.8 79.0 0.0 0.0 0.0 -1.7 0.0 Kombisensor
2019-03-25 02:12:00 3.9 79.0 0.0 0.0 0.0 -1.7 0.0 Kombisensor
2019-03-25 02:10:00 3.9 79.0 0.0 0.0 0.0 -1.8 0.0 Kombisensor
2019-03-25 02:09:00 3.9 79.0 0.0 0.0 0.0 -1.8 0.0 Kombisensor
2019-03-25 02:06:00 4.0 79.0 0.0 0.0 0.0 -1.8 0.0 Kombisensor
2019-03-25 02:05:00 3.9 79.0 0.0 0.0 0.0 -1.9 0.0 Kombisensor
2019-03-25 02:03:00 3.9 79.0 0.0 0.0 0.0 -1.9 0.0 Kombisensor
2019-03-25 02:00:00 4.0 79.0 0.0 0.0 0.0 -1.8 0.0 Kombisensor
2019-03-25 02:00:00 4.0 79.0 0.0 0.0 0.0 -1.8 0.0 Kombisensor
2019-03-25 01:57:00 4.0 79.0 0.0 0.0 0.0 -1.7 0.0 Kombisensor
2019-03-25 01:55:00 3.9 79.0 0.0 0.0 0.0 -1.8 0.0 Kombisensor
2019-03-25 01:55:00 3.9 79.0 0.0 0.0 0.0 -1.8 0.0 Kombisensor
2019-03-25 01:52:00 3.9 79.0 0.0 0.0 0.0 -1.8 0.0 Kombisensor
2019-03-25 01:50:00 4.0 79.0 0.0 0.0 0.0 -1.7 0.0 Kombisensor
2019-03-25 01:49:00 4.0 79.0 0.0 0.0 0.0 -1.6 0.0 Kombisensor
2019-03-25 01:46:00 4.0 79.0 0.0 0.0 0.0 -1.6 0.0 Kombisensor
2019-03-25 01:45:00 4.1 79.0 0.0 0.0 0.0 -1.5 0.0 Kombisensor
2019-03-25 01:43:00 4.1 79.0 0.0 0.0 0.0 -1.5 0.0 Kombisensor
2019-03-25 01:40:00 4.1 79.0 0.0 0.0 0.0 -1.5 0.0 Kombisensor
2019-03-25 01:40:00 4.1 79.0 0.0 0.0 0.0 -1.5 0.0 Kombisensor
2019-03-25 01:37:00 4.2 79.0 0.0 0.0 0.0 -1.4 0.0 Kombisensor
2019-03-25 01:35:00 4.3 79.0 0.0 0.0 0.0 -1.3 0.0 Kombisensor
2019-03-25 01:34:00 4.3 79.0 0.0 0.0 0.0 -1.3 0.0 Kombisensor
2019-03-25 01:31:00 4.4 79.0 0.0 0.0 0.0 -1.3 0.0 Kombisensor
2019-03-25 01:30:00 4.6 79.0 0.0 0.0 0.0 -1.1 0.0 Kombisensor
2019-03-25 01:28:00 4.6 79.0 0.0 0.0 0.0 -1.1 0.0 Kombisensor
2019-03-25 01:25:00 4.8 79.0 0.0 0.0 0.0 -0.8 0.0 Kombisensor
2019-03-25 01:25:00 4.8 79.0 0.0 0.0 0.0 -0.8 0.0 Kombisensor
2019-03-25 01:22:00 5.0 79.0 0.0 0.0 0.0 -0.6 0.0 Kombisensor
2019-03-25 01:20:00 5.3 79.0 0.0 0.0 0.0 -0.2 0.0 Kombisensor
2019-03-25 01:19:00 5.3 79.0 0.0 0.0 0.0 -0.2 0.0 Kombisensor
2019-03-25 01:16:00 5.4 79.0 0.0 0.0 0.0 -0.2 0.0 Kombisensor
2019-03-25 01:15:00 5.5 79.0 0.0 0.0 0.0 -0.1 0.0 Kombisensor
2019-03-25 01:14:00 5.5 79.0 0.0 0.0 0.0 -0.2 0.0 Kombisensor
2019-03-25 01:11:00 5.6 79.0 0.0 0.0 0.0 -0.1 0.0 Kombisensor
2019-03-25 01:10:00 5.7 79.0 0.0 0.0 0.0 0.0 0.0 Kombisensor
2019-03-25 01:08:00 5.7 79.0 0.0 0.0 0.0 0.4 0.0 Kombisensor
2019-03-25 01:05:00 5.8 79.0 0.0 0.0 0.0 0.2 0.0 Kombisensor
2019-03-25 01:05:00 5.8 79.0 0.0 0.0 0.0 0.2 0.0 Kombisensor
2019-03-25 01:02:00 5.8 79.0 0.0 0.0 0.0 0.1 0.0 Kombisensor
2019-03-25 01:00:00 5.8 79.0 0.0 0.0 0.0 0.1 0.0 Kombisensor
2019-03-25 00:56:00 5.7 79.0 0.0 0.0 0.0 0.0 0.0 Kombisensor
2019-03-25 00:55:00 5.7 79.0 0.0 0.0 0.0 0.0 0.0 Kombisensor
2019-03-25 00:53:00 5.7 79.0 0.0 0.0 0.0 0.0 0.0 Kombisensor
2019-03-25 00:50:00 5.7 79.0 0.0 0.0 0.0 0.0 0.0 Kombisensor
2019-03-25 00:50:00 5.7 79.0 0.0 0.0 0.0 0.1 0.0 Kombisensor
2019-03-25 00:47:00 5.6 79.0 0.0 0.0 0.0 0.0 0.0 Kombisensor
2019-03-25 00:45:00 5.6 79.0 0.0 0.0 0.0 0.0 0.0 Kombisensor
2019-03-25 00:44:00 5.6 79.0 0.0 0.0 0.0 0.0 0.0 Kombisensor
2019-03-25 00:41:00 5.6 79.0 0.0 0.0 0.0 0.0 0.0 Kombisensor
2019-03-25 00:40:00 5.6 79.0 0.0 0.0 0.0 0.0 0.0 Kombisensor
2019-03-25 00:38:00 5.6 79.0 0.0 0.0 0.0 0.0 0.0 Kombisensor
2019-03-25 00:35:00 5.6 79.0 0.0 0.0 0.0 -0.1 0.0 Kombisensor
2019-03-25 00:35:00 5.7 79.0 0.0 0.0 0.0 0.0 0.0 Kombisensor
2019-03-25 00:32:00 5.7 79.0 0.0 0.0 0.0 0.0 0.0 Kombisensor
2019-03-25 00:30:00 5.7 79.0 0.0 0.0 0.0 0.0 0.0 Kombisensor
2019-03-25 00:29:00 5.7 79.0 0.0 0.0 0.0 0.1 0.0 Kombisensor
2019-03-25 00:27:00 5.6 79.0 0.0 0.0 0.0 0.0 0.0 Kombisensor
2019-03-25 00:25:00 5.6 79.0 0.0 0.0 0.0 0.0 0.0 Kombisensor
2019-03-25 00:24:00 5.6 79.0 0.0 0.0 0.0 0.0 0.0 Kombisensor
2019-03-25 00:21:00 5.6 79.0 0.0 0.0 0.0 0.1 0.0 Kombisensor
2019-03-25 00:20:00 5.5 79.0 0.0 0.0 0.0 0.0 0.0 Kombisensor
2019-03-25 00:18:00 5.5 79.0 0.0 0.0 0.0 -0.1 0.0 Kombisensor
2019-03-25 00:15:00 5.6 79.0 0.0 0.0 0.0 0.0 0.0 Kombisensor
2019-03-25 00:15:00 5.6 79.0 0.0 0.0 0.0 -0.1 0.0 Kombisensor
2019-03-25 00:12:00 5.7 79.0 0.0 0.0 0.0 0.0 0.0 Kombisensor
2019-03-25 00:10:00 5.7 79.0 0.0 0.0 0.0 0.0 0.0 Kombisensor
2019-03-25 00:09:00 5.7 79.0 0.0 0.0 0.0 0.4 0.0 Kombisensor
2019-03-25 00:06:00 5.3 79.0 0.0 0.0 0.0 -0.3 0.0 Kombisensor
2019-03-25 00:05:00 5.6 79.0 0.0 0.0 0.0 0.0 0.0 Kombisensor
2019-03-25 00:03:00 5.6 79.0 0.0 0.0 0.0 -0.1 0.0 Kombisensor
2019-03-25 00:00:00 5.7 79.0 0.0 0.0 0.0 0.0 0.0 Kombisensor
2019-03-25 00:00:00 5.7 79.0 0.0 0.0 0.0 0.0 0.0 Kombisensor